Time;durP1;ratioP1;P1;durP2;ratioP2;P2;SDS_P1;SDS_P2;PMS_P1;PMS_P2;Temp;Humidity;BMP_temperature;BMP_pressure;BME280_temperature;BME280_humidity;BME280_pressure;Samples;Min_cycle;Max_cycle;Signal;HPM_P1;HPM_P2
2022/05/06 00:00:56;;;;;;;;;;;10.10;99.90;;;;;;5053986;28;19932;-70
2022/05/06 00:03:22;;;;;;;;;;;10.00;99.90;;;;;;5053917;28;19978;-69
2022/05/06 00:05:47;;;;;;;;;;;9.30;99.90;;;;;;5052856;28;19931;-69
2022/05/06 00:08:14;;;;;;;;;;;10.00;99.90;;;;;;5053728;28;19924;-70
2022/05/06 00:10:39;;;;;;;;;;;9.80;99.90;;;;;;5053616;28;20384;-68
2022/05/06 00:13:05;;;;;;;;;;;9.70;99.90;;;;;;5052578;28;19975;-71
2022/05/06 00:15:31;;;;;;;;;;;9.70;99.90;;;;;;5053821;28;19929;-69
2022/05/06 00:17:56;;;;;;;;;;;9.60;99.90;;;;;;5053454;28;20043;-69
2022/05/06 00:20:22;;;;;;;;;;;9.50;99.90;;;;;;5053743;28;19924;-68
2022/05/06 00:22:47;;;;;;;;;;;9.80;99.90;;;;;;5053564;28;19931;-69
2022/05/06 00:25:13;;;;;;;;;;;9.30;99.90;;;;;;5053468;28;19924;-70
2022/05/06 00:27:42;;;;;;;;;;;9.30;99.90;;;;;;5053670;28;19924;-68
2022/05/06 00:30:08;;;;;;;;;;;9.20;99.90;;;;;;5052753;28;19968;-69
2022/05/06 00:32:34;;;;;;;;;;;9.20;99.90;;;;;;5052684;28;19924;-68
2022/05/06 00:34:59;;;;;;;;;;;9.20;99.90;;;;;;5052636;28;19951;-68
2022/05/06 00:37:25;;;;;;;;;;;9.20;99.90;;;;;;5052587;28;19925;-69
2022/05/06 00:39:50;;;;;;;;;;;9.20;99.90;;;;;;5055372;28;19925;-70
2022/05/06 00:42:16;;;;;;;;;;;9.20;99.90;;;;;;5057582;28;19932;-69
2022/05/06 00:44:42;;;;;;;;;;;9.10;99.90;;;;;;5056783;28;19925;-71
2022/05/06 00:47:08;;;;;;;;;;;9.30;99.90;;;;;;5057556;28;19929;-68
2022/05/06 00:49:34;;;;;;;;;;;9.20;99.90;;;;;;5056608;28;19929;-68
2022/05/06 00:52:03;;;;;;;;;;;10.00;99.90;;;;;;5057484;28;19929;-69
2022/05/06 00:54:30;;;;;;;;;;;9.50;99.90;;;;;;5057525;28;19982;-67
2022/05/06 00:56:56;;;;;;;;;;;9.10;99.90;;;;;;5057621;28;19931;-69
2022/05/06 00:59:21;;;;;;;;;;;8.90;99.90;;;;;;5056462;28;20299;-70
2022/05/06 01:01:47;;;;;;;;;;;9.00;99.90;;;;;;5056076;28;19924;-69
2022/05/06 01:04:14;;;;;;;;;;;9.50;99.90;;;;;;5057343;28;20015;-71
2022/05/06 01:06:40;;;;;;;;;;;9.40;99.90;;;;;;5056150;28;19935;-71
2022/05/06 01:09:06;;;;;;;;;;;9.00;99.90;;;;;;5056134;28;20372;-68
2022/05/06 01:11:32;;;;;;;;;;;9.00;99.90;;;;;;5056944;28;19924;-69
2022/05/06 01:13:58;;;;;;;;;;;9.00;99.90;;;;;;5057202;28;20372;-68
2022/05/06 01:16:24;;;;;;;;;;;9.10;99.90;;;;;;5057177;28;19932;-69
2022/05/06 01:18:51;;;;;;;;;;;9.10;99.90;;;;;;5056105;28;19929;-68
2022/05/06 01:21:20;;;;;;;;;;;9.10;99.90;;;;;;5056919;28;19925;-69
2022/05/06 01:23:45;;;;;;;;;;;9.10;99.90;;;;;;5056677;28;19931;-71
2022/05/06 01:26:11;;;;;;;;;;;9.10;99.90;;;;;;5055453;28;20019;-70
2022/05/06 01:28:38;;;;;;;;;;;8.90;99.90;;;;;;5038716;28;20000;-68
2022/05/06 01:31:04;;;;;;;;;;;8.90;99.90;;;;;;5056527;28;19987;-69
2022/05/06 01:33:31;;;;;;;;;;;8.90;99.90;;;;;;5056473;28;19928;-69
2022/05/06 01:36:06;;;;;;;;;;;7.50;99.90;;;;;;5056434;28;19931;-70
2022/05/06 01:38:36;;;;;;;;;;;8.50;99.90;;;;;;5055299;28;20441;-69
2022/05/06 01:41:03;;;;;;;;;;;8.40;99.90;;;;;;5055516;28;19925;-68
2022/05/06 01:43:39;;;;;;;;;;;8.30;99.90;;;;;;5055283;28;19982;-69
2022/05/06 01:46:06;;;;;;;;;;;8.30;99.90;;;;;;5054717;28;20354;-71
2022/05/06 01:48:32;;;;;;;;;;;8.80;99.90;;;;;;5056082;28;19970;-68
2022/05/06 01:50:58;;;;;;;;;;;10.10;99.90;;;;;;5055977;28;19932;-68
2022/05/06 01:53:24;;;;;;;;;;;8.10;99.90;;;;;;5054841;28;19925;-68
2022/05/06 01:55:50;;;;;;;;;;;8.00;99.90;;;;;;5056089;28;19929;-71
2022/05/06 01:58:15;;;;;;;;;;;8.00;99.90;;;;;;5056048;28;19931;-71
2022/05/06 02:00:41;;;;;;;;;;;6.70;99.90;;;;;;5056009;28;19935;-68
2022/05/06 02:05:16;;;;;;;;;;;8.00;99.90;;;;;;5055904;28;19928;-68
2022/05/06 02:05:52;;;;;;;;;;;8.30;99.90;;;;;;5055620;28;19932;-67
2022/05/06 02:08:17;;;;;;;;;;;7.90;99.90;;;;;;5055881;28;19925;-68
2022/05/06 02:10:43;;;;;;;;;;;8.00;99.90;;;;;;5055761;28;19931;-72
2022/05/06 02:13:09;;;;;;;;;;;8.90;99.90;;;;;;5055529;28;19932;-70
2022/05/06 02:15:38;;;;;;;;;;;8.00;99.90;;;;;;5053649;28;20163;-68
2022/05/06 02:18:04;;;;;;;;;;;8.00;99.90;;;;;;5055596;28;19925;-69
2022/05/06 02:20:30;;;;;;;;;;;8.10;99.90;;;;;;5054560;28;19929;-68
2022/05/06 02:22:55;;;;;;;;;;;9.80;99.90;;;;;;5055271;28;19932;-71
2022/05/06 02:25:21;;;;;;;;;;;9.00;99.90;;;;;;5055521;28;19925;-69
2022/05/06 02:27:46;;;;;;;;;;;8.90;99.90;;;;;;5055456;28;20288;-69
2022/05/06 02:33:14;;;;;;;;;;;8.30;99.90;;;;;;5055658;28;19925;-69
2022/05/06 02:35:40;;;;;;;;;;;8.30;99.90;;;;;;5054457;28;19935;-69
2022/05/06 02:38:08;;;;;;;;;;;7.30;99.90;;;;;;5055672;28;20007;-71
2022/05/06 02:40:34;;;;;;;;;;;8.50;99.90;;;;;;5055436;28;20028;-70
2022/05/06 02:43:01;;;;;;;;;;;8.30;99.90;;;;;;5054215;28;19976;-71
2022/05/06 02:45:29;;;;;;;;;;;8.30;99.90;;;;;;5055331;28;20020;-70
2022/05/06 02:47:56;;;;;;;;;;;8.30;99.90;;;;;;5053987;28;20019;-69
2022/05/06 02:50:21;;;;;;;;;;;8.30;99.90;;;;;;5055430;28;19983;-68
2022/05/06 02:52:47;;;;;;;;;;;8.20;99.90;;;;;;5055290;28;20288;-71
2022/05/06 02:55:12;;;;;;;;;;;8.20;99.90;;;;;;5053838;28;19925;-68
2022/05/06 02:57:38;;;;;;;;;;;8.20;99.90;;;;;;5055167;28;19925;-68
2022/05/06 03:00:04;;;;;;;;;;;8.20;99.90;;;;;;5055020;28;20380;-71
2022/05/06 03:02:29;;;;;;;;;;;8.30;99.90;;;;;;5054360;28;19935;-68
2022/05/06 03:04:55;;;;;;;;;;;8.30;99.90;;;;;;5054911;28;20311;-68
2022/05/06 03:07:21;;;;;;;;;;;8.30;99.90;;;;;;5053653;28;19978;-68
2022/05/06 03:09:46;;;;;;;;;;;8.40;99.90;;;;;;5053694;28;20384;-70
2022/05/06 03:12:12;;;;;;;;;;;8.70;99.90;;;;;;5054607;28;20330;-69
2022/05/06 03:14:38;;;;;;;;;;;8.10;99.90;;;;;;5054803;28;19951;-70
2022/05/06 03:17:03;;;;;;;;;;;8.20;99.90;;;;;;5054686;28;20019;-70
2022/05/06 03:19:29;;;;;;;;;;;8.20;99.90;;;;;;5054569;28;19925;-68
2022/05/06 03:21:55;;;;;;;;;;;8.20;99.90;;;;;;5054758;28;19947;-71
2022/05/06 03:24:22;;;;;;;;;;;8.20;99.90;;;;;;5054539;28;20439;-69
2022/05/06 03:26:47;;;;;;;;;;;8.20;99.90;;;;;;5054522;28;19924;-69
2022/05/06 03:29:13;;;;;;;;;;;8.20;99.90;;;;;;5054463;28;19924;-69
2022/05/06 03:31:38;;;;;;;;;;;8.30;99.90;;;;;;5054470;28;20285;-68
2022/05/06 03:34:05;;;;;;;;;;;9.30;99.90;;;;;;5054327;28;20352;-68
2022/05/06 03:36:30;;;;;;;;;;;8.20;99.90;;;;;;5053570;28;20019;-69
2022/05/06 03:38:56;;;;;;;;;;;8.10;99.90;;;;;;5054439;28;20012;-71
2022/05/06 03:41:21;;;;;;;;;;;8.10;99.90;;;;;;5054305;28;19924;-68
2022/05/06 03:43:47;;;;;;;;;;;8.10;99.90;;;;;;5054288;28;20021;-69
2022/05/06 03:46:13;;;;;;;;;;;8.10;99.90;;;;;;5054158;28;19932;-68
2022/05/06 03:48:38;;;;;;;;;;;8.00;99.90;;;;;;5054074;28;19932;-69
2022/05/06 03:51:22;;;;;;;;;;;8.10;99.90;;;;;;5053993;28;20292;-68
2022/05/06 03:53:52;;;;;;;;;;;8.10;99.90;;;;;;5053996;28;19925;-69
2022/05/06 03:56:18;;;;;;;;;;;8.10;99.90;;;;;;5054168;28;19932;-69
2022/05/06 03:58:44;;;;;;;;;;;8.70;99.90;;;;;;5052900;28;20402;-68
2022/05/06 04:01:10;;;;;;;;;;;8.20;99.90;;;;;;5052965;28;19932;-71
2022/05/06 04:03:36;;;;;;;;;;;8.00;99.90;;;;;;5053843;28;19925;-69
2022/05/06 04:06:02;;;;;;;;;;;8.10;99.90;;;;;;5053968;28;19932;-68
2022/05/06 04:08:28;;;;;;;;;;;8.00;99.90;;;;;;5053869;28;19932;-68
2022/05/06 04:10:54;;;;;;;;;;;8.00;99.90;;;;;;5053790;28;20300;-68
2022/05/06 04:13:19;;;;;;;;;;;8.00;99.90;;;;;;5053440;28;19974;-68
2022/05/06 04:15:45;;;;;;;;;;;7.90;99.90;;;;;;5053469;28;19925;-71
2022/05/06 04:18:12;;;;;;;;;;;8.40;99.90;;;;;;5053627;28;19924;-68
2022/05/06 04:23:30;;;;;;;;;;;8.00;99.90;;;;;;5053819;28;19974;-71
2022/05/06 04:25:56;;;;;;;;;;;8.00;99.90;;;;;;5053436;28;19979;-69
2022/05/06 04:28:23;;;;;;;;;;;8.10;99.90;;;;;;5053522;28;19925;-70
2022/05/06 04:30:48;;;;;;;;;;;8.10;99.90;;;;;;5053496;28;20357;-68
2022/05/06 04:33:14;;;;;;;;;;;8.00;99.90;;;;;;5053481;28;19979;-71
2022/05/06 04:35:40;;;;;;;;;;;7.90;99.90;;;;;;5053418;28;19981;-68
2022/05/06 04:38:05;;;;;;;;;;;7.90;99.90;;;;;;5086279;28;19924;-68
2022/05/06 04:40:33;;;;;;;;;;;7.90;99.90;;;;;;5053423;28;19924;-70
2022/05/06 04:43:00;;;;;;;;;;;8.10;99.90;;;;;;5053405;28;20013;-68
2022/05/06 04:45:26;;;;;;;;;;;8.20;99.90;;;;;;5053385;28;19998;-71
2022/05/06 04:47:52;;;;;;;;;;;7.90;99.90;;;;;;5053327;28;20028;-69
2022/05/06 04:50:18;;;;;;;;;;;8.00;99.90;;;;;;5053562;28;19968;-68
2022/05/06 04:52:43;;;;;;;;;;;8.00;99.90;;;;;;5053419;28;20463;-68
2022/05/06 04:55:09;;;;;;;;;;;8.00;99.90;;;;;;5053344;28;20187;-68
2022/05/06 04:57:35;;;;;;;;;;;8.20;99.90;;;;;;5052252;28;19932;-68
2022/05/06 05:00:01;;;;;;;;;;;8.10;99.90;;;;;;5053255;28;19931;-70
2022/05/06 05:02:27;;;;;;;;;;;8.10;99.90;;;;;;5053237;28;19967;-70
2022/05/06 05:04:56;;;;;;;;;;;8.20;99.90;;;;;;5053448;28;19967;-68
2022/05/06 05:07:22;;;;;;;;;;;8.20;99.90;;;;;;5052242;28;20020;-70
2022/05/06 05:09:48;;;;;;;;;;;8.30;99.90;;;;;;5053217;28;19968;-70
2022/05/06 05:12:13;;;;;;;;;;;9.20;99.90;;;;;;5052122;28;19932;-68
2022/05/06 05:14:41;;;;;;;;;;;8.60;99.90;;;;;;5053174;28;19928;-71
2022/05/06 05:17:07;;;;;;;;;;;8.50;99.90;;;;;;5053012;28;19924;-69
2022/05/06 05:19:32;;;;;;;;;;;8.80;99.90;;;;;;5052300;28;20445;-71
2022/05/06 05:21:58;;;;;;;;;;;9.00;99.90;;;;;;5053476;28;20327;-68
2022/05/06 05:24:24;;;;;;;;;;;8.60;99.90;;;;;;5053056;28;19925;-68
2022/05/06 05:26:50;;;;;;;;;;;8.60;99.90;;;;;;5056407;28;19928;-70
2022/05/06 05:29:15;;;;;;;;;;;8.70;99.90;;;;;;5056758;28;19929;-70
2022/05/06 05:31:43;;;;;;;;;;;8.70;99.90;;;;;;5056625;28;20020;-69
2022/05/06 05:34:09;;;;;;;;;;;9.40;99.90;;;;;;5056939;28;19968;-69
2022/05/06 05:36:34;;;;;;;;;;;7.70;99.90;;;;;;5056756;28;19932;-68
2022/05/06 05:39:00;;;;;;;;;;;8.90;99.90;;;;;;5056673;28;19929;-69
2022/05/06 05:41:25;;;;;;;;;;;9.20;99.90;;;;;;5056504;28;19925;-70
2022/05/06 05:49:19;;;;;;;;;;;9.10;99.90;;;;;;5056541;28;19931;-69
2022/05/06 05:51:45;;;;;;;;;;;9.50;99.90;;;;;;5056639;28;20007;-68
2022/05/06 05:54:10;;;;;;;;;;;10.10;99.90;;;;;;5055069;28;19925;-68
2022/05/06 05:56:36;;;;;;;;;;;9.40;99.90;;;;;;5055374;28;20326;-69
2022/05/06 05:59:01;;;;;;;;;;;9.30;99.90;;;;;;5056046;28;19932;-71
2022/05/06 06:01:28;;;;;;;;;;;9.40;99.90;;;;;;5055463;28;19925;-68
2022/05/06 06:03:54;;;;;;;;;;;9.50;99.90;;;;;;5056278;28;19932;-68
2022/05/06 06:06:19;;;;;;;;;;;9.80;99.90;;;;;;5056140;28;19929;-69
2022/05/06 06:08:45;;;;;;;;;;;9.60;99.90;;;;;;5054821;28;19931;-69
2022/05/06 06:11:10;;;;;;;;;;;9.70;99.90;;;;;;5055983;28;19925;-71
2022/05/06 06:13:36;;;;;;;;;;;9.70;99.90;;;;;;5055701;28;19932;-68
2022/05/06 06:16:01;;;;;;;;;;;9.80;99.90;;;;;;5055748;28;19925;-68
2022/05/06 06:18:27;;;;;;;;;;;9.90;99.90;;;;;;5055910;28;19951;-68
2022/05/06 06:20:54;;;;;;;;;;;10.00;99.90;;;;;;5054776;28;19932;-69
2022/05/06 06:23:20;;;;;;;;;;;10.50;99.90;;;;;;5054884;28;20376;-69
2022/05/06 06:25:46;;;;;;;;;;;10.30;99.90;;;;;;5054660;28;20319;-70
2022/05/06 06:28:11;;;;;;;;;;;10.10;99.90;;;;;;5055287;28;19925;-69
2022/05/06 06:30:37;;;;;;;;;;;10.20;99.90;;;;;;5055448;28;19954;-69
2022/05/06 06:33:03;;;;;;;;;;;10.40;99.90;;;;;;5055663;28;19925;-69
2022/05/06 06:35:28;;;;;;;;;;;10.40;99.90;;;;;;5051977;28;19925;-69
2022/05/06 06:37:54;;;;;;;;;;;10.90;99.90;;;;;;5054262;28;19929;-69
2022/05/06 06:40:20;;;;;;;;;;;11.20;99.90;;;;;;5054688;28;19933;-70
2022/05/06 06:42:46;;;;;;;;;;;10.70;99.90;;;;;;5054113;28;20031;-70
2022/05/06 06:45:12;;;;;;;;;;;10.80;99.90;;;;;;5055244;28;20311;-67
2022/05/06 06:47:38;;;;;;;;;;;10.90;99.90;;;;;;5055337;28;19924;-68
2022/05/06 06:50:04;;;;;;;;;;;11.10;99.90;;;;;;5055411;28;19925;-68
2022/05/06 06:52:29;;;;;;;;;;;11.00;99.90;;;;;;5055197;28;20035;-68
2022/05/06 06:54:57;;;;;;;;;;;11.40;99.90;;;;;;5054659;28;19971;-70
2022/05/06 06:57:22;;;;;;;;;;;12.60;99.90;;;;;;5054163;28;19924;-70
2022/05/06 06:59:48;;;;;;;;;;;11.20;99.90;;;;;;5054983;28;19931;-69
2022/05/06 07:02:13;;;;;;;;;;;11.30;99.90;;;;;;5053904;28;19979;-70
2022/05/06 07:04:39;;;;;;;;;;;11.30;99.90;;;;;;5054819;28;20403;-69
2022/05/06 07:12:32;;;;;;;;;;;11.60;99.90;;;;;;5054587;28;19932;-68
2022/05/06 07:14:58;;;;;;;;;;;11.70;99.90;;;;;;5037004;28;19959;-68
2022/05/06 07:17:24;;;;;;;;;;;11.70;99.90;;;;;;5054261;28;19925;-70
2022/05/06 07:19:51;;;;;;;;;;;11.80;99.90;;;;;;5054182;28;19928;-71
2022/05/06 07:22:17;;;;;;;;;;;11.90;99.90;;;;;;5054378;28;19925;-67
2022/05/06 07:24:43;;;;;;;;;;;12.50;99.90;;;;;;5052898;28;19975;-68
2022/05/06 07:27:09;;;;;;;;;;;12.10;99.90;;;;;;5054204;28;19991;-68
2022/05/06 07:29:34;;;;;;;;;;;12.30;99.90;;;;;;5054118;28;19928;-67
2022/05/06 07:32:00;;;;;;;;;;;12.30;99.90;;;;;;5054558;28;20410;-70
2022/05/06 07:34:26;;;;;;;;;;;12.40;99.90;;;;;;5054338;28;19925;-68
2022/05/06 07:36:51;;;;;;;;;;;12.70;99.90;;;;;;5054295;28;20288;-68
2022/05/06 07:39:17;;;;;;;;;;;12.70;99.90;;;;;;5054197;28;20025;-68
2022/05/06 07:41:43;;;;;;;;;;;11.50;99.90;;;;;;5053102;28;19935;-70
2022/05/06 07:44:09;;;;;;;;;;;12.80;99.90;;;;;;5053937;28;20444;-68
2022/05/06 07:46:35;;;;;;;;;;;12.90;99.90;;;;;;5054150;28;19925;-70
2022/05/06 07:49:01;;;;;;;;;;;13.00;99.90;;;;;;5052643;28;19951;-68
2022/05/06 07:51:27;;;;;;;;;;;13.20;99.90;;;;;;5053101;28;19924;-68
2022/05/06 07:53:55;;;;;;;;;;;13.40;99.90;;;;;;5054060;28;19994;-69
2022/05/06 07:56:25;;;;;;;;;;;13.50;99.90;;;;;;5053757;28;19924;-68
2022/05/06 07:58:51;;;;;;;;;;;13.50;99.90;;;;;;5053727;28;19935;-67
2022/05/06 08:01:17;;;;;;;;;;;13.60;99.90;;;;;;5052952;28;19929;-68
2022/05/06 08:06:27;;;;;;;;;;;13.70;99.90;;;;;;5053706;28;19932;-69
2022/05/06 08:08:52;;;;;;;;;;;13.90;99.90;;;;;;5053606;28;20303;-69
2022/05/06 08:11:18;;;;;;;;;;;14.00;99.90;;;;;;5053469;28;19932;-68
2022/05/06 08:13:50;;;;;;;;;;;14.10;99.90;;;;;;5053532;28;19947;-69
2022/05/06 08:16:15;;;;;;;;;;;14.10;99.90;;;;;;5052741;28;19925;-70
2022/05/06 08:18:41;;;;;;;;;;;14.20;99.90;;;;;;5053453;28;20376;-69
2022/05/06 08:21:07;;;;;;;;;;;14.30;99.90;;;;;;5052390;28;19989;-69
2022/05/06 08:23:32;;;;;;;;;;;14.40;99.90;;;;;;5053253;28;19925;-69
2022/05/06 08:25:58;;;;;;;;;;;14.40;99.90;;;;;;5053196;28;19947;-69
2022/05/06 08:28:24;;;;;;;;;;;14.50;99.90;;;;;;5053476;28;20362;-69
2022/05/06 08:30:49;;;;;;;;;;;14.60;99.90;;;;;;5052647;28;20016;-69
2022/05/06 08:33:16;;;;;;;;;;;14.60;99.90;;;;;;5052516;28;19931;-68
2022/05/06 08:35:42;;;;;;;;;;;14.70;99.90;;;;;;5053568;28;20384;-69
2022/05/06 08:38:08;;;;;;;;;;;14.70;99.90;;;;;;5053513;28;20027;-70
2022/05/06 08:40:35;;;;;;;;;;;14.80;99.90;;;;;;5052126;28;19976;-70
2022/05/06 08:43:02;;;;;;;;;;;14.90;99.90;;;;;;5052041;28;20397;-69
2022/05/06 08:50:58;;;;;;;;;;;15.10;99.90;;;;;;5053284;28;20051;-71
2022/05/06 08:53:26;;;;;;;;;;;15.20;99.90;;;;;;5053309;28;19924;-69
2022/05/06 08:55:53;;;;;;;;;;;15.10;99.90;;;;;;5035743;28;20383;-70
2022/05/06 08:58:19;;;;;;;;;;;15.20;99.90;;;;;;5052804;28;19932;-69
2022/05/06 09:00:44;;;;;;;;;;;15.10;99.90;;;;;;5055144;28;20376;-69
2022/05/06 09:03:12;;;;;;;;;;;15.30;99.90;;;;;;5055981;28;19928;-70
2022/05/06 09:05:48;;;;;;;;;;;15.40;99.90;;;;;;5057313;28;19925;-69
2022/05/06 09:08:13;;;;;;;;;;;15.50;99.90;;;;;;5056989;28;19955;-69
2022/05/06 09:10:39;;;;;;;;;;;15.50;99.90;;;;;;5056003;28;19924;-69
2022/05/06 09:13:05;;;;;;;;;;;15.60;99.90;;;;;;5056938;28;20015;-70
2022/05/06 09:18:19;;;;;;;;;;;15.70;99.90;;;;;;5056868;28;19931;-70
2022/05/06 09:20:45;;;;;;;;;;;15.80;99.90;;;;;;5056727;28;20376;-69
2022/05/06 09:23:24;;;;;;;;;;;15.80;99.90;;;;;;5056683;28;19932;-70
2022/05/06 09:25:53;;;;;;;;;;;15.80;99.90;;;;;;5056748;28;19925;-69
2022/05/06 09:28:28;;;;;;;;;;;15.80;99.90;;;;;;5056769;28;19931;-69
2022/05/06 09:31:04;;;;;;;;;;;15.90;99.90;;;;;;5055725;28;20019;-70
2022/05/06 09:33:31;;;;;;;;;;;16.00;99.90;;;;;;5056533;28;19938;-69
2022/05/06 09:35:57;;;;;;;;;;;16.10;99.90;;;;;;5056977;28;19971;-69
2022/05/06 09:38:25;;;;;;;;;;;16.20;99.90;;;;;;5056772;28;19932;-69
2022/05/06 09:40:51;;;;;;;;;;;16.30;99.90;;;;;;5056473;28;19928;-71
2022/05/06 09:43:17;;;;;;;;;;;16.90;99.90;;;;;;5056440;28;19924;-69
2022/05/06 09:45:44;;;;;;;;;;;16.40;99.90;;;;;;5056396;28;19925;-69
2022/05/06 09:48:13;;;;;;;;;;;16.40;99.90;;;;;;5056292;28;19925;-69
2022/05/06 09:50:45;;;;;;;;;;;16.50;99.90;;;;;;5056553;28;19975;-70
2022/05/06 09:53:14;;;;;;;;;;;16.60;99.90;;;;;;5056428;28;20352;-69
2022/05/06 09:55:41;;;;;;;;;;;16.70;99.90;;;;;;5054759;28;19935;-69
2022/05/06 09:58:08;;;;;;;;;;;16.80;99.90;;;;;;5054672;28;19931;-71
2022/05/06 10:00:33;;;;;;;;;;;16.90;99.90;;;;;;5056170;28;19979;-70
2022/05/06 10:03:00;;;;;;;;;;;16.80;99.90;;;;;;5056385;28;19925;-69
2022/05/06 10:05:29;;;;;;;;;;;16.90;99.90;;;;;;5056302;28;19975;-69
2022/05/06 10:07:58;;;;;;;;;;;16.90;99.90;;;;;;5054992;28;19971;-69
2022/05/06 10:10:28;;;;;;;;;;;17.00;99.90;;;;;;5038346;28;19925;-70
2022/05/06 10:12:56;;;;;;;;;;;17.00;99.90;;;;;;5053520;28;19979;-72
2022/05/06 10:15:23;;;;;;;;;;;17.00;99.90;;;;;;5055704;28;19925;-69
2022/05/06 10:17:55;;;;;;;;;;;17.00;99.90;;;;;;5055026;28;19932;-72
2022/05/06 10:20:33;;;;;;;;;;;17.00;99.90;;;;;;5055926;28;20295;-69
2022/05/06 10:23:09;;;;;;;;;;;17.00;99.90;;;;;;5054604;28;20023;-68
2022/05/06 10:25:41;;;;;;;;;;;17.00;99.90;;;;;;5055489;28;20352;-69
2022/05/06 10:34:06;;;;;;;;;;;17.00;99.90;;;;;;5055517;28;20435;-70
2022/05/06 10:36:42;;;;;;;;;;;17.10;99.90;;;;;;5055527;28;19925;-71
2022/05/06 10:39:19;;;;;;;;;;;17.20;99.90;;;;;;5055635;28;20031;-68
2022/05/06 10:42:05;;;;;;;;;;;17.30;99.90;;;;;;5055345;28;19931;-70
2022/05/06 10:44:38;;;;;;;;;;;17.30;99.90;;;;;;5055352;28;20027;-69
2022/05/06 10:47:13;;;;;;;;;;;17.30;99.90;;;;;;5055302;28;20024;-67
2022/05/06 10:49:39;;;;;;;;;;;17.30;99.90;;;;;;5055309;28;20365;-71
2022/05/06 10:52:13;;;;;;;;;;;17.30;99.90;;;;;;5054776;28;19925;-71
2022/05/06 10:54:42;;;;;;;;;;;17.40;99.90;;;;;;5053953;28;19925;-69
2022/05/06 10:57:07;;;;;;;;;;;17.40;99.90;;;;;;5055050;28;19987;-71
2022/05/06 10:59:51;;;;;;;;;;;17.30;99.90;;;;;;5054949;28;20376;-69
2022/05/06 11:02:21;;;;;;;;;;;17.40;99.90;;;;;;5055074;28;20388;-69
2022/05/06 11:04:49;;;;;;;;;;;17.40;99.90;;;;;;5054959;28;19970;-72
2022/05/06 11:07:17;;;;;;;;;;;17.40;99.90;;;;;;5054935;28;19970;-69
2022/05/06 11:09:42;;;;;;;;;;;17.40;99.90;;;;;;5053917;28;20280;-71
2022/05/06 11:12:08;;;;;;;;;;;17.50;99.90;;;;;;5054680;28;19932;-68
2022/05/06 11:14:34;;;;;;;;;;;17.50;99.90;;;;;;5054836;28;20017;-69
2022/05/06 11:17:16;;;;;;;;;;;17.60;99.90;;;;;;5054798;28;19929;-70
2022/05/06 11:19:42;;;;;;;;;;;17.60;99.90;;;;;;5053476;28;20312;-69
2022/05/06 11:22:11;;;;;;;;;;;17.60;99.90;;;;;;5054676;28;19925;-69
2022/05/06 11:24:36;;;;;;;;;;;17.60;99.90;;;;;;5052771;28;19925;-69
2022/05/06 11:27:15;;;;;;;;;;;17.70;99.90;;;;;;5054596;28;19935;-69
2022/05/06 11:29:47;;;;;;;;;;;17.80;99.90;;;;;;5054562;28;19928;-68
2022/05/06 11:32:13;;;;;;;;;;;17.80;99.90;;;;;;5054534;28;20012;-69
2022/05/06 11:34:45;;;;;;;;;;;17.90;99.90;;;;;;5054474;28;20008;-69
2022/05/06 11:37:11;;;;;;;;;;;17.10;99.90;;;;;;5054093;28;19935;-69
2022/05/06 11:39:37;;;;;;;;;;;17.80;99.90;;;;;;5054312;28;20001;-69
2022/05/06 11:42:23;;;;;;;;;;;17.90;99.90;;;;;;5053409;28;19925;-69
2022/05/06 11:47:42;;;;;;;;;;;17.90;99.90;;;;;;5053959;28;20291;-69
2022/05/06 11:50:09;;;;;;;;;;;17.90;99.90;;;;;;5053336;28;19928;-71
2022/05/06 11:52:36;;;;;;;;;;;17.90;99.90;;;;;;5054245;28;20335;-71
2022/05/06 11:55:02;;;;;;;;;;;18.00;99.90;;;;;;5053974;28;19928;-72
2022/05/06 11:57:29;;;;;;;;;;;18.00;99.90;;;;;;5053927;28;19990;-73
2022/05/06 11:59:54;;;;;;;;;;;18.10;99.90;;;;;;5053876;28;19929;-73
2022/05/06 12:02:20;;;;;;;;;;;18.20;99.90;;;;;;5053872;28;19990;-72
2022/05/06 12:04:45;;;;;;;;;;;18.20;99.90;;;;;;5053787;28;19925;-71
2022/05/06 12:07:11;;;;;;;;;;;18.10;99.90;;;;;;5053665;28;19936;-71
2022/05/06 12:09:43;;;;;;;;;;;18.40;99.90;;;;;;5053867;28;19970;-71
2022/05/06 12:12:10;;;;;;;;;;;18.30;99.90;;;;;;5053734;28;19932;-71
2022/05/06 12:14:39;;;;;;;;;;;18.40;99.90;;;;;;5053473;28;19984;-72
2022/05/06 12:17:09;;;;;;;;;;;18.40;99.90;;;;;;5053513;28;19932;-71
2022/05/06 12:19:41;;;;;;;;;;;18.40;99.90;;;;;;5052570;28;20307;-70
2022/05/06 12:22:11;;;;;;;;;;;18.50;99.90;;;;;;5053698;28;19951;-71
2022/05/06 12:24:39;;;;;;;;;;;18.50;99.90;;;;;;5052512;28;19931;-70
2022/05/06 12:27:06;;;;;;;;;;;18.50;99.90;;;;;;5053263;28;19925;-74
2022/05/06 12:29:36;;;;;;;;;;;18.60;99.90;;;;;;5052624;28;20402;-70
2022/05/06 12:32:03;;;;;;;;;;;18.50;99.90;;;;;;5053743;28;20379;-70
2022/05/06 12:34:29;;;;;;;;;;;18.50;99.90;;;;;;5052943;28;19925;-70
2022/05/06 12:37:07;;;;;;;;;;;18.50;99.90;;;;;;5052487;28;19924;-70
2022/05/06 12:39:37;;;;;;;;;;;18.50;99.90;;;;;;5053497;28;19932;-69
2022/05/06 12:42:13;;;;;;;;;;;18.40;99.90;;;;;;5053348;28;19925;-71
2022/05/06 12:44:38;;;;;;;;;;;18.40;99.90;;;;;;5053534;28;19925;-70
2022/05/06 12:47:11;;;;;;;;;;;18.50;99.90;;;;;;5048447;28;20450;-68
2022/05/06 12:49:39;;;;;;;;;;;18.60;99.90;;;;;;5042749;28;19925;-69
2022/05/06 12:52:06;;;;;;;;;;;18.60;99.90;;;;;;5053362;28;19932;-70
2022/05/06 12:54:35;;;;;;;;;;;18.70;99.90;;;;;;5050149;28;19928;-71
2022/05/06 12:57:02;;;;;;;;;;;18.60;93.60;;;;;;5041025;28;19933;-72
2022/05/06 12:59:27;;;;;;;;;;;18.90;95.80;;;;;;5052069;28;19944;-70
2022/05/06 13:01:53;;;;;;;;;;;19.00;88.30;;;;;;5053183;28;19924;-70
2022/05/06 13:04:19;;;;;;;;;;;19.00;94.50;;;;;;5043797;28;19925;-71
2022/05/06 13:06:45;;;;;;;;;;;19.00;87.60;;;;;;5033335;28;20411;-74
2022/05/06 13:09:11;;;;;;;;;;;19.00;83.70;;;;;;5031904;28;19936;-75
2022/05/06 13:11:36;;;;;;;;;;;18.20;82.00;;;;;;5032125;28;19925;-70
2022/05/06 13:14:02;;;;;;;;;;;19.10;83.10;;;;;;5033322;28;19925;-72
2022/05/06 13:16:28;;;;;;;;;;;19.20;76.90;;;;;;5033323;28;20299;-71
2022/05/06 13:18:54;;;;;;;;;;;19.20;78.10;;;;;;5033309;28;20319;-73
2022/05/06 13:21:20;;;;;;;;;;;19.20;80.10;;;;;;5031974;28;19925;-71
2022/05/06 13:23:46;;;;;;;;;;;19.20;74.20;;;;;;5032074;28;19925;-75
2022/05/06 13:26:11;;;;;;;;;;;19.30;74.10;;;;;;5050913;28;19924;-74
2022/05/06 13:28:37;;;;;;;;;;;19.30;79.70;;;;;;5052863;28;19960;-74
2022/05/06 13:31:02;;;;;;;;;;;19.40;75.20;;;;;;5052840;28;19925;-74
2022/05/06 13:33:29;;;;;;;;;;;19.40;77.80;;;;;;5051548;28;19925;-72
2022/05/06 13:35:55;;;;;;;;;;;19.40;73.50;;;;;;5052874;28;20293;-71
2022/05/06 13:38:21;;;;;;;;;;;19.40;76.20;;;;;;5052094;28;19990;-76
2022/05/06 13:40:48;;;;;;;;;;;19.40;77.90;;;;;;5052918;28;19975;-71
2022/05/06 13:43:14;;;;;;;;;;;19.30;76.80;;;;;;5052688;28;19925;-72
2022/05/06 13:45:40;;;;;;;;;;;19.50;76.30;;;;;;5053149;28;20020;-71
2022/05/06 13:48:06;;;;;;;;;;;19.60;78.70;;;;;;5056493;28;19968;-74
2022/05/06 13:50:32;;;;;;;;;;;19.70;74.40;;;;;;5056493;28;19925;-71
2022/05/06 13:52:57;;;;;;;;;;;19.80;77.50;;;;;;5055105;28;20288;-72
2022/05/06 13:59:03;;;;;;;;;;;19.80;79.40;;;;;;5056214;28;19932;-73
2022/05/06 14:00:53;;;;;;;;;;;20.00;78.20;;;;;;5056295;28;20342;-75
2022/05/06 14:03:18;;;;;;;;;;;20.20;80.10;;;;;;5055248;28;19928;-71
2022/05/06 14:05:46;;;;;;;;;;;20.20;81.20;;;;;;5056153;28;20015;-74
2022/05/06 14:08:11;;;;;;;;;;;19.40;76.90;;;;;;5055953;28;19924;-73
2022/05/06 14:10:37;;;;;;;;;;;20.10;76.00;;;;;;5054996;28;19932;-73
2022/05/06 14:13:03;;;;;;;;;;;19.90;76.40;;;;;;5054309;28;19934;-70
2022/05/06 14:15:28;;;;;;;;;;;19.90;77.40;;;;;;5055835;28;19924;-73
2022/05/06 14:17:54;;;;;;;;;;;19.80;81.20;;;;;;5038225;28;19971;-72
2022/05/06 14:20:20;;;;;;;;;;;19.80;87.40;;;;;;5055895;28;19987;-72
2022/05/06 14:22:45;;;;;;;;;;;19.80;84.90;;;;;;5053822;28;19935;-71
2022/05/06 14:25:11;;;;;;;;;;;19.80;88.50;;;;;;5055451;28;19925;-72
2022/05/06 14:27:37;;;;;;;;;;;19.70;90.20;;;;;;5054456;28;19931;-72
2022/05/06 14:30:03;;;;;;;;;;;19.60;90.20;;;;;;5052860;28;20320;-71
2022/05/06 14:32:32;;;;;;;;;;;19.50;91.40;;;;;;5035836;28;20020;-71
2022/05/06 14:35:16;;;;;;;;;;;19.50;92.40;;;;;;5035723;28;19991;-71
2022/05/06 14:37:42;;;;;;;;;;;19.50;97.00;;;;;;5035515;28;19972;-75
2022/05/06 14:40:08;;;;;;;;;;;19.40;96.80;;;;;;5034504;28;19929;-73
2022/05/06 14:42:34;;;;;;;;;;;19.40;99.50;;;;;;5035301;28;19925;-70
2022/05/06 14:44:59;;;;;;;;;;;19.30;99.90;;;;;;5034463;28;19926;-71
2022/05/06 14:47:25;;;;;;;;;;;19.30;99.90;;;;;;5035366;28;19925;-71
2022/05/06 14:49:51;;;;;;;;;;;19.30;99.90;;;;;;5035405;28;20052;-71
2022/05/06 14:52:17;;;;;;;;;;;19.30;99.90;;;;;;5035369;28;20011;-70
2022/05/06 14:54:45;;;;;;;;;;;19.30;99.90;;;;;;5034212;28;19925;-72
2022/05/06 14:57:11;;;;;;;;;;;19.10;99.90;;;;;;5001642;28;20295;-73
2022/05/06 14:59:36;;;;;;;;;;;19.20;99.90;;;;;;5034669;28;19925;-70